createdAt,value
2022-11-22T00:00:20.902Z,95724.13
2022-11-22T00:02:47.607Z,95721.91
2022-11-22T00:05:14.302Z,95708.69
2022-11-22T00:07:41.204Z,95736.59
2022-11-22T00:10:10.720Z,95731.91
2022-11-22T00:12:38.025Z,95722.66
2022-11-22T00:15:05.176Z,95711.75
2022-11-22T00:17:32.496Z,95717.06
2022-11-22T00:19:59.299Z,95719.34
2022-11-22T00:22:25.994Z,95720.97
2022-11-22T00:24:52.797Z,95712.13
2022-11-22T00:27:20.401Z,95700.78
2022-11-22T00:29:46.785Z,95703.47
2022-11-22T00:32:14.038Z,95708.44
2022-11-22T00:34:40.613Z,95701.13
2022-11-22T00:37:07.361Z,95706.13
2022-11-22T00:39:33.747Z,95691.38
2022-11-22T00:42:00.506Z,95677.63
2022-11-22T00:44:27.297Z,95672.69
2022-11-22T00:46:53.803Z,95676.81
2022-11-22T00:49:20.208Z,95686.75
2022-11-22T00:51:46.637Z,95685.91
2022-11-22T00:54:13.131Z,95684.16
2022-11-22T00:56:39.683Z,95692.81
2022-11-22T00:59:06.319Z,95687.19
2022-11-22T01:01:33.007Z,95689.94
2022-11-22T01:03:59.718Z,95698.03
2022-11-22T01:06:26.063Z,95688.16
2022-11-22T01:08:52.696Z,95690.44
2022-11-22T01:11:19.608Z,95688.91
2022-11-22T01:13:46.284Z,95686.41
2022-11-22T01:16:16.681Z,95676.00
2022-11-22T01:18:43.881Z,95678.09
2022-11-22T01:21:10.429Z,95679.47
2022-11-22T01:23:37.230Z,95677.69
2022-11-22T01:26:06.640Z,95685.38
2022-11-22T01:28:33.160Z,95689.78
2022-11-22T01:30:59.548Z,95694.06
2022-11-22T01:33:25.869Z,95688.78
2022-11-22T01:35:52.312Z,95689.41
2022-11-22T01:38:18.891Z,95687.91
2022-11-22T01:40:45.369Z,95684.78
2022-11-22T01:43:18.406Z,95672.09
2022-11-22T01:45:58.861Z,95674.78
2022-11-22T01:48:46.988Z,95664.59
2022-11-22T01:51:23.154Z,95667.91
2022-11-22T01:53:49.933Z,95658.00
2022-11-22T01:56:19.775Z,95662.56
2022-11-22T01:58:49.300Z,95664.66
2022-11-22T02:01:15.932Z,95663.75
2022-11-22T02:03:46.817Z,95656.47
2022-11-22T02:06:14.391Z,95666.44
2022-11-22T02:08:52.755Z,95661.13
2022-11-22T02:11:20.528Z,95660.09
2022-11-22T02:13:48.586Z,95649.72
2022-11-22T02:16:15.119Z,95652.09
2022-11-22T02:18:42.134Z,95653.84
2022-11-22T02:21:09.137Z,95657.69
2022-11-22T02:23:53.591Z,95656.91
2022-11-22T02:26:21.178Z,95655.44
2022-11-22T02:28:48.266Z,95654.81
2022-11-22T02:31:51.741Z,95655.13
2022-11-22T02:34:18.133Z,95657.22
2022-11-22T02:36:50.535Z,95666.16
2022-11-22T02:39:21.455Z,95665.53
2022-11-22T02:41:48.805Z,95663.19
2022-11-22T02:44:16.611Z,95663.31
2022-11-22T02:46:48.061Z,95671.72
2022-11-22T02:49:16.948Z,95672.34
2022-11-22T02:51:43.307Z,95684.69
2022-11-22T02:54:09.744Z,95695.78
2022-11-22T02:56:36.090Z,95688.97
2022-11-22T02:59:02.625Z,95695.09
2022-11-22T03:01:30.219Z,95702.03
2022-11-22T03:03:56.843Z,95699.88
2022-11-22T03:06:23.478Z,95693.56
2022-11-22T03:08:55.898Z,95692.09
2022-11-22T03:11:23.083Z,95700.84
2022-11-22T03:13:49.728Z,95698.81
2022-11-22T03:16:16.325Z,95698.22
2022-11-22T03:18:42.901Z,95703.84
2022-11-22T03:21:10.305Z,95696.47
2022-11-22T03:23:37.555Z,95693.41
2022-11-22T03:26:10.977Z,95706.81
2022-11-22T03:28:37.591Z,95698.66
2022-11-22T03:31:07.855Z,95697.09
2022-11-22T03:33:35.668Z,95696.28
2022-11-22T03:36:03.608Z,95692.66
2022-11-22T03:38:30.329Z,95692.88
2022-11-22T03:40:56.850Z,95696.88
2022-11-22T03:43:23.426Z,95694.00
2022-11-22T03:45:50.005Z,95697.81
2022-11-22T03:48:16.532Z,95706.47
2022-11-22T03:50:43.028Z,95702.47
2022-11-22T03:53:09.579Z,95706.19
2022-11-22T03:55:36.220Z,95707.44
2022-11-22T03:58:02.837Z,95716.00
2022-11-22T04:00:29.675Z,95714.47
2022-11-22T04:02:56.267Z,95717.16
2022-11-22T04:05:22.826Z,95721.94
2022-11-22T04:07:56.223Z,95712.66
2022-11-22T04:10:23.919Z,95713.28
2022-11-22T04:12:50.786Z,95709.53
2022-11-22T04:15:17.483Z,95714.94
2022-11-22T04:17:48.357Z,95712.66
2022-11-22T04:20:34.970Z,95728.03
2022-11-22T04:23:06.439Z,95728.81
2022-11-22T04:25:35.180Z,95730.22
2022-11-22T04:28:02.014Z,95736.59
2022-11-22T04:30:48.205Z,95743.41
2022-11-22T04:33:16.144Z,95739.50
2022-11-22T04:35:44.075Z,95743.31
2022-11-22T04:38:11.896Z,95738.81
2022-11-22T04:40:39.124Z,95736.53
2022-11-22T04:43:25.620Z,95738.38
2022-11-22T04:45:52.559Z,95734.28
2022-11-22T04:48:19.011Z,95739.63
2022-11-22T04:51:04.660Z,95738.09
2022-11-22T04:53:31.185Z,95738.09
2022-11-22T04:55:57.776Z,95743.09
2022-11-22T04:58:24.543Z,95741.69
2022-11-22T05:00:51.895Z,95740.97
2022-11-22T05:03:18.716Z,95736.69
2022-11-22T05:05:45.553Z,95741.50
2022-11-22T05:08:12.969Z,95737.38
2022-11-22T05:10:58.372Z,95734.38
2022-11-22T05:13:27.674Z,95733.81
2022-11-22T05:15:54.198Z,95740.03
2022-11-22T05:18:21.834Z,95736.97
2022-11-22T05:20:48.726Z,95738.25
2022-11-22T05:23:34.394Z,95747.03
2022-11-22T05:26:01.009Z,95749.81
2022-11-22T05:28:29.448Z,95748.50
2022-11-22T05:30:56.541Z,95749.66
2022-11-22T05:33:23.484Z,95746.34
2022-11-22T05:35:49.920Z,95757.50
2022-11-22T05:38:16.462Z,95761.72
2022-11-22T05:40:42.831Z,95758.22
2022-11-22T05:43:09.354Z,95765.69
2022-11-22T05:45:35.845Z,95757.69
2022-11-22T05:48:02.361Z,95760.38
2022-11-22T05:50:28.701Z,95768.09
2022-11-22T05:52:59.954Z,95752.63
2022-11-22T05:55:26.487Z,95760.38
2022-11-22T05:57:52.996Z,95758.03
2022-11-22T06:00:19.520Z,95774.25
2022-11-22T06:02:45.905Z,95768.84
2022-11-22T06:05:12.279Z,95773.56
2022-11-22T06:07:38.878Z,95774.84
2022-11-22T06:10:05.552Z,95778.25
2022-11-22T06:12:31.957Z,95774.84
2022-11-22T06:14:58.262Z,95788.38
2022-11-22T06:17:24.624Z,95790.31
2022-11-22T06:19:51.149Z,95782.63
2022-11-22T06:22:17.628Z,95783.47
2022-11-22T06:24:44.003Z,95787.59
2022-11-22T06:27:10.406Z,95793.84
2022-11-22T06:29:36.772Z,95784.91
2022-11-22T06:32:04.076Z,95789.06
2022-11-22T06:34:30.724Z,95789.91
2022-11-22T06:36:57.276Z,95793.28
2022-11-22T06:39:23.809Z,95794.06
2022-11-22T06:41:50.175Z,95796.47
2022-11-22T06:44:16.655Z,95798.34
2022-11-22T06:46:43.189Z,95792.91
2022-11-22T06:49:09.605Z,95804.13
2022-11-22T06:51:35.921Z,95806.03
2022-11-22T06:54:02.302Z,95812.97
2022-11-22T06:56:31.606Z,95821.31
2022-11-22T06:59:01.387Z,95818.88
2022-11-22T07:01:29.589Z,95828.84
2022-11-22T07:04:01.016Z,95833.50
2022-11-22T07:06:29.799Z,95834.25
2022-11-22T07:08:56.434Z,95839.53
2022-11-22T07:11:26.081Z,95847.25
2022-11-22T07:13:53.864Z,95844.00
2022-11-22T07:16:22.119Z,95859.88
2022-11-22T07:18:49.539Z,95856.31
2022-11-22T07:21:18.894Z,95863.19
2022-11-22T07:23:47.516Z,95875.53
2022-11-22T07:26:14.982Z,95878.25
2022-11-22T07:28:41.882Z,95887.78
2022-11-22T07:31:11.329Z,95891.56
2022-11-22T07:33:38.009Z,95891.41
2022-11-22T07:36:23.140Z,95894.13
2022-11-22T07:38:50.461Z,95895.31
2022-11-22T07:41:18.890Z,95895.03
2022-11-22T07:43:47.131Z,95907.72
2022-11-22T07:46:30.996Z,95898.66
2022-11-22T07:48:58.658Z,95909.25
2022-11-22T07:51:25.402Z,95906.13
2022-11-22T07:53:52.095Z,95913.06
2022-11-22T07:56:18.832Z,95904.38
2022-11-22T07:58:46.194Z,95898.22
2022-11-22T08:01:18.669Z,95898.81
2022-11-22T08:03:45.882Z,95897.69
2022-11-22T08:06:13.348Z,95894.97
2022-11-22T08:08:40.250Z,95890.47
2022-11-22T08:11:07.396Z,95899.97
2022-11-22T08:13:34.402Z,95899.81
2022-11-22T08:16:06.348Z,95893.09
2022-11-22T08:18:34.084Z,95900.50
2022-11-22T08:21:08.214Z,95901.88
2022-11-22T08:23:35.538Z,95895.34
2022-11-22T08:26:02.227Z,95901.84
2022-11-22T08:28:28.846Z,95916.75
2022-11-22T08:31:12.454Z,95911.78
2022-11-22T08:33:39.658Z,95916.84
2022-11-22T08:36:06.806Z,95918.66
2022-11-22T08:38:33.158Z,95914.38
2022-11-22T08:40:59.601Z,95923.75
2022-11-22T08:43:26.153Z,95925.78
2022-11-22T08:45:57.774Z,95927.13
2022-11-22T08:48:25.620Z,95927.72
2022-11-22T08:50:54.484Z,95928.22
2022-11-22T08:53:21.712Z,95936.69
2022-11-22T08:55:48.158Z,95938.66
2022-11-22T08:58:14.567Z,95945.81
2022-11-22T09:00:41.237Z,95941.28
2022-11-22T09:03:07.722Z,95934.41
2022-11-22T09:05:34.400Z,95941.91
2022-11-22T09:10:47.834Z,95948.41
2022-11-22T09:13:14.282Z,95944.34
2022-11-22T09:15:40.654Z,95941.31
2022-11-22T09:18:07.039Z,95942.63
2022-11-22T09:20:33.589Z,95950.19
2022-11-22T09:23:01.495Z,95945.09
2022-11-22T09:25:28.070Z,95953.63
2022-11-22T09:27:54.619Z,95945.13
2022-11-22T09:30:21.790Z,95954.38
2022-11-22T09:32:48.376Z,95965.56
2022-11-22T09:35:17.248Z,95965.25
2022-11-22T09:37:43.785Z,95962.66
2022-11-22T09:40:10.696Z,95961.91
2022-11-22T09:42:50.234Z,95961.78
2022-11-22T09:45:52.082Z,95964.97
2022-11-22T09:48:42.703Z,95969.91
2022-11-22T09:51:20.097Z,95967.03
2022-11-22T09:54:04.934Z,95970.97
2022-11-22T09:56:35.656Z,95974.25
2022-11-22T09:59:12.378Z,95986.34
2022-11-22T10:01:52.248Z,95986.03
2022-11-22T10:04:33.029Z,95992.13
2022-11-22T10:07:03.580Z,95992.56
2022-11-22T10:09:48.626Z,95999.41
2022-11-22T10:12:37.479Z,96001.50
2022-11-22T10:15:33.121Z,96007.28
2022-11-22T10:18:04.860Z,96004.66
2022-11-22T10:20:41.185Z,96014.69
2022-11-22T10:23:18.474Z,96012.38
2022-11-22T10:25:56.575Z,96016.44
2022-11-22T10:28:46.399Z,96016.63
2022-11-22T10:31:21.703Z,96017.91
2022-11-22T10:33:51.062Z,96019.97
2022-11-22T10:37:01.672Z,96016.38
2022-11-22T10:39:38.319Z,96015.78
2022-11-22T10:42:32.820Z,96014.75
2022-11-22T10:45:19.150Z,96016.63
2022-11-22T10:48:14.683Z,96010.50
2022-11-22T10:50:53.579Z,96024.63
2022-11-22T10:53:28.281Z,96021.00
2022-11-22T10:56:14.986Z,96033.56
2022-11-22T10:59:06.492Z,96030.41
2022-11-22T11:01:43.723Z,96022.09
2022-11-22T11:04:15.987Z,96029.06
2022-11-22T11:07:11.483Z,96021.25
2022-11-22T11:10:11.478Z,96030.19
2022-11-22T11:12:46.654Z,96019.50
2022-11-22T11:15:24.890Z,96011.44
2022-11-22T11:18:00.974Z,96014.25
2022-11-22T11:20:33.270Z,96011.63
2022-11-22T11:23:14.377Z,96006.72
2022-11-22T11:25:44.318Z,96004.56
2022-11-22T11:28:19.428Z,95997.25
2022-11-22T11:31:08.889Z,95981.56
2022-11-22T11:33:38.526Z,95990.06
2022-11-22T11:36:11.011Z,95979.94
2022-11-22T11:38:40.645Z,95977.09
2022-11-22T11:41:16.734Z,95975.88
2022-11-22T11:43:44.057Z,95975.34
2022-11-22T11:46:22.730Z,95973.84
2022-11-22T11:48:51.217Z,95966.75
2022-11-22T11:51:41.288Z,95964.78
2022-11-22T11:54:17.446Z,95964.72
2022-11-22T11:56:48.507Z,95973.16
2022-11-22T11:59:18.338Z,95962.84
2022-11-22T12:01:51.150Z,95964.59
2022-11-22T12:04:27.389Z,95961.16
2022-11-22T12:07:03.792Z,95959.47
2022-11-22T12:09:34.227Z,95967.91
2022-11-22T12:12:12.908Z,95963.63
2022-11-22T12:15:09.735Z,95965.03
2022-11-22T12:17:37.245Z,95955.06
2022-11-22T12:20:09.265Z,95960.34
2022-11-22T12:23:12.813Z,95955.72
2022-11-22T12:25:40.559Z,95954.06
2022-11-22T12:28:22.805Z,95964.38
2022-11-22T12:31:28.242Z,95960.63
2022-11-22T12:34:02.874Z,95959.69
2022-11-22T12:36:48.916Z,95960.38
2022-11-22T12:39:22.121Z,95957.63
2022-11-22T12:41:52.430Z,95957.00
2022-11-22T12:44:21.145Z,95958.84
2022-11-22T12:46:56.367Z,95961.84
2022-11-22T12:49:38.654Z,95958.34
2022-11-22T12:52:14.037Z,95958.00
2022-11-22T12:54:53.216Z,95948.22
2022-11-22T12:57:26.229Z,95949.06
2022-11-22T13:00:15.845Z,95955.19
2022-11-22T13:02:59.397Z,95963.47
2022-11-22T13:05:36.854Z,95954.50
2022-11-22T13:08:14.061Z,95960.16
2022-11-22T13:11:03.407Z,95952.00
2022-11-22T13:13:35.076Z,95954.06
2022-11-22T13:16:06.129Z,95946.97
2022-11-22T13:18:36.606Z,95952.09
2022-11-22T13:21:19.494Z,95946.53
2022-11-22T13:24:10.022Z,95942.69
2022-11-22T13:26:45.583Z,95950.56
2022-11-22T13:29:22.208Z,95936.50
2022-11-22T13:32:20.361Z,95942.72
2022-11-22T13:35:07.996Z,95947.97
2022-11-22T13:37:41.203Z,95938.63
2022-11-22T13:40:19.909Z,95946.78
2022-11-22T13:42:46.418Z,95942.59
2022-11-22T13:45:25.559Z,95947.22
2022-11-22T13:47:52.589Z,95937.06
2022-11-22T13:50:40.169Z,95943.97
2022-11-22T13:53:21.454Z,95947.16
2022-11-22T13:55:47.985Z,95946.63
2022-11-22T13:58:23.780Z,95957.53
2022-11-22T14:00:51.322Z,95952.97
2022-11-22T14:03:29.966Z,95950.03
2022-11-22T14:05:58.338Z,95949.88
2022-11-22T14:08:31.037Z,95953.72
2022-11-22T14:10:57.674Z,95961.56
2022-11-22T14:13:55.265Z,95953.81
2022-11-22T14:16:36.738Z,95951.75
2022-11-22T14:19:09.558Z,95951.44
2022-11-22T14:21:54.299Z,95957.00
2022-11-22T14:24:49.601Z,95962.00
2022-11-22T14:27:35.169Z,95958.84
2022-11-22T14:30:37.653Z,95969.75
2022-11-22T14:33:13.930Z,95969.13
2022-11-22T14:36:06.269Z,95973.69
2022-11-22T14:38:35.468Z,95978.72
2022-11-22T14:41:27.031Z,95979.94
2022-11-22T14:44:00.038Z,95979.47
2022-11-22T14:46:52.302Z,95980.16
2022-11-22T14:49:32.056Z,95985.91
2022-11-22T14:52:00.110Z,95989.00
2022-11-22T14:54:43.285Z,95991.38
2022-11-22T14:57:16.705Z,95987.47
2022-11-22T15:00:07.208Z,95992.81
2022-11-22T15:03:15.070Z,96000.63
2022-11-22T15:09:10.826Z,96006.00
2022-11-22T15:09:17.864Z,96002.81
2022-11-22T15:12:07.319Z,96008.47
2022-11-22T15:14:48.966Z,96007.16
2022-11-22T15:57:35.485Z,96050.91
2022-11-22T16:00:02.633Z,96060.34
2022-11-22T16:02:32.380Z,96049.91
2022-11-22T16:06:10.076Z,96056.44
2022-11-22T16:07:53.109Z,96061.28
2022-11-22T16:10:22.771Z,96063.16
2022-11-22T16:12:50.350Z,96054.31
2022-11-22T16:15:23.469Z,96061.47
2022-11-22T16:17:59.240Z,96052.53
2022-11-22T16:20:30.829Z,96054.84
2022-11-22T16:23:09.303Z,96065.03
2022-11-22T16:25:38.541Z,96058.25
2022-11-22T16:28:25.251Z,96060.28
2022-11-22T16:30:54.836Z,96063.75
2022-11-22T16:33:21.497Z,96066.91
2022-11-22T16:35:53.248Z,96056.44
2022-11-22T16:38:19.789Z,96056.19
2022-11-22T16:40:46.633Z,96063.16
2022-11-22T16:43:18.490Z,96058.81
2022-11-22T16:45:45.360Z,96060.03
2022-11-22T16:48:35.360Z,96063.16
2022-11-22T16:51:05.151Z,96056.31
2022-11-22T16:53:41.795Z,96050.16
2022-11-22T16:56:15.130Z,96060.63
2022-11-22T16:58:41.505Z,96055.88
2022-11-22T17:01:15.861Z,96061.66
2022-11-22T17:03:44.076Z,96068.44
2022-11-22T17:06:16.161Z,96066.75
2022-11-22T17:08:42.684Z,96064.53
2022-11-22T17:11:11.268Z,96070.41
2022-11-22T17:13:37.878Z,96071.16
2022-11-22T17:16:04.709Z,96075.75
2022-11-22T17:18:31.100Z,96069.97
2022-11-22T17:20:57.597Z,96068.88
2022-11-22T17:23:30.881Z,96073.03
2022-11-22T17:25:57.778Z,96075.84
2022-11-22T17:28:24.380Z,96081.13
2022-11-22T17:30:51.417Z,96078.50
2022-11-22T17:33:17.855Z,96079.91
2022-11-22T17:35:44.486Z,96087.31
2022-11-22T17:38:12.316Z,96089.38
2022-11-22T17:40:38.994Z,96088.59
2022-11-22T17:43:05.463Z,96091.81
2022-11-22T17:45:32.074Z,96088.00
2022-11-22T17:47:58.677Z,96097.19
2022-11-22T17:50:25.041Z,96096.59
2022-11-22T17:52:52.103Z,96094.28
2022-11-22T17:55:18.443Z,96097.06
2022-11-22T17:57:44.852Z,96097.44
2022-11-22T18:00:11.943Z,96104.75
2022-11-22T18:02:38.400Z,96100.16
2022-11-22T18:05:08.479Z,96111.78
2022-11-22T18:07:35.191Z,96099.72
2022-11-22T18:10:02.078Z,96104.66
2022-11-22T18:12:28.431Z,96101.41
2022-11-22T18:14:54.930Z,96103.03
2022-11-22T18:17:21.601Z,96107.38
2022-11-22T18:19:48.218Z,96108.28
2022-11-22T18:22:14.600Z,96114.16
2022-11-22T18:24:40.914Z,96101.41
2022-11-22T18:27:07.606Z,96105.72
2022-11-22T18:29:42.903Z,96103.41
2022-11-22T18:32:20.084Z,96108.50
2022-11-22T18:34:46.600Z,96110.88
2022-11-22T18:37:13.205Z,96110.53
2022-11-22T18:39:40.538Z,96119.16
2022-11-22T18:42:11.790Z,96122.66
2022-11-22T18:44:38.190Z,96120.44
2022-11-22T18:47:04.831Z,96121.25
2022-11-22T18:49:32.126Z,96122.53
2022-11-22T18:51:58.918Z,96121.84
2022-11-22T18:54:25.453Z,96130.44
2022-11-22T18:56:52.054Z,96142.28
2022-11-22T18:59:18.874Z,96132.66
2022-11-22T19:01:45.674Z,96134.59
2022-11-22T19:04:16.153Z,96138.59
2022-11-22T19:06:44.061Z,96135.50
2022-11-22T19:09:10.720Z,96139.41
2022-11-22T19:11:37.458Z,96138.72
2022-11-22T19:14:04.618Z,96135.66
2022-11-22T19:16:31.668Z,96145.00
2022-11-22T19:18:59.279Z,96137.31
2022-11-22T19:21:27.872Z,96145.13
2022-11-22T19:23:55.441Z,96141.28
2022-11-22T19:26:24.513Z,96144.69
2022-11-22T19:28:55.813Z,96147.50
2022-11-22T19:31:25.585Z,96147.50
2022-11-22T19:33:52.115Z,96151.84
2022-11-22T19:36:21.445Z,96154.56
2022-11-22T19:38:48.635Z,96150.66
2022-11-22T19:41:20.535Z,96163.91
2022-11-22T19:43:48.293Z,96160.53
2022-11-22T19:46:15.658Z,96162.84
2022-11-22T19:48:46.856Z,96163.31
2022-11-22T19:51:14.970Z,96170.63
2022-11-22T19:53:42.076Z,96160.91
2022-11-22T19:56:16.840Z,96170.63
2022-11-22T19:58:44.681Z,96167.16
2022-11-22T20:01:13.576Z,96171.81
2022-11-22T20:03:41.925Z,96174.47
2022-11-22T20:06:09.886Z,96162.84
2022-11-22T20:08:37.299Z,96163.97
2022-11-22T20:11:06.621Z,96164.84
2022-11-22T20:13:39.808Z,96163.63
2022-11-22T20:16:08.461Z,96164.44
2022-11-22T20:18:34.834Z,96159.44
2022-11-22T20:21:02.159Z,96157.81
2022-11-22T20:23:29.902Z,96164.97
2022-11-22T20:26:06.723Z,96161.06
2022-11-22T20:28:33.321Z,96158.00
2022-11-22T20:31:07.934Z,96160.03
2022-11-22T20:33:36.287Z,96164.41
2022-11-22T20:36:17.169Z,96173.91
2022-11-22T20:38:44.997Z,96169.13
2022-11-22T20:41:13.017Z,96172.25
2022-11-22T20:43:39.854Z,96176.19
2022-11-22T20:46:11.487Z,96183.03
2022-11-22T20:48:39.589Z,96184.56
2022-11-22T20:51:08.333Z,96197.28
2022-11-22T20:53:35.755Z,96195.75
2022-11-22T20:56:03.587Z,96200.59
2022-11-22T20:58:30.726Z,96206.69
2022-11-22T21:00:57.920Z,96206.72
2022-11-22T21:03:25.510Z,96201.34
2022-11-22T21:05:54.145Z,96205.16
2022-11-22T21:08:22.120Z,96201.28
2022-11-22T21:10:49.086Z,96198.97
2022-11-22T21:13:15.751Z,96204.47
2022-11-22T21:15:42.414Z,96200.94
2022-11-22T21:18:24.727Z,96204.47
2022-11-22T21:20:51.952Z,96205.66
2022-11-22T21:23:18.508Z,96200.69
2022-11-22T21:25:46.644Z,96210.84
2022-11-22T21:28:13.039Z,96198.91
2022-11-22T21:30:39.545Z,96206.25
2022-11-22T21:33:05.950Z,96208.59
2022-11-22T21:35:32.383Z,96203.19
2022-11-22T21:37:58.834Z,96205.50
2022-11-22T21:40:25.334Z,96209.41
2022-11-22T21:42:51.690Z,96208.28
2022-11-22T21:45:18.228Z,96213.38
2022-11-22T21:47:47.360Z,96212.22
2022-11-22T21:50:15.422Z,96216.63
2022-11-22T21:52:42.593Z,96215.09
2022-11-22T21:55:09.800Z,96212.06
2022-11-22T21:57:36.297Z,96213.63
2022-11-22T22:00:04.518Z,96209.91
2022-11-22T22:02:32.685Z,96218.38
2022-11-22T22:04:59.377Z,96214.69
2022-11-22T22:07:51.491Z,96215.94
2022-11-22T22:10:15.169Z,96220.88
2022-11-22T22:12:41.706Z,96224.78
2022-11-22T22:15:10.723Z,96229.03
2022-11-22T22:17:37.237Z,96230.13
2022-11-22T22:20:04.342Z,96232.41
2022-11-22T22:22:30.849Z,96237.13
2022-11-22T22:24:57.226Z,96232.00
2022-11-22T22:27:23.567Z,96239.34
2022-11-22T22:29:49.970Z,96237.34
2022-11-22T22:32:16.561Z,96253.94
2022-11-22T22:34:42.923Z,96250.03
2022-11-22T22:37:09.218Z,96259.22
2022-11-22T22:39:35.575Z,96255.47
2022-11-22T22:42:02.110Z,96263.44
2022-11-22T22:44:29.003Z,96259.09
2022-11-22T22:46:55.424Z,96259.84
2022-11-22T22:49:21.832Z,96262.06
2022-11-22T22:51:49.458Z,96267.84
2022-11-22T22:54:16.395Z,96258.19
2022-11-22T22:56:43.773Z,96262.81
2022-11-22T22:59:10.666Z,96258.09
2022-11-22T23:01:37.327Z,96258.94
2022-11-22T23:04:03.855Z,96259.28
2022-11-22T23:06:33.165Z,96263.53
2022-11-22T23:09:00.329Z,96267.41
2022-11-22T23:11:48.401Z,96262.41
2022-11-22T23:14:19.323Z,96258.50
2022-11-22T23:16:45.745Z,96262.81
2022-11-22T23:19:12.780Z,96262.81
2022-11-22T23:21:39.335Z,96263.59
2022-11-22T23:24:06.500Z,96262.84
2022-11-22T23:26:33.561Z,96267.50
2022-11-22T23:29:00.010Z,96266.78
2022-11-22T23:31:27.128Z,96269.94
2022-11-22T23:33:53.683Z,96265.34
2022-11-22T23:36:21.519Z,96266.56
2022-11-22T23:38:48.383Z,96269.31
2022-11-22T23:41:20.386Z,96274.00
2022-11-22T23:43:47.651Z,96275.13
2022-11-22T23:46:18.240Z,96276.72
2022-11-22T23:48:52.878Z,96275.59
2022-11-22T23:51:20.058Z,96269.44
2022-11-22T23:53:46.617Z,96283.47
2022-11-22T23:56:21.743Z,96282.69
2022-11-22T23:58:48.711Z,96284.28
